Terminal Aerodrome Forecast
Issued by NWS

Home | Current Version | Previous Version | Text Only | Print | Product List | Glossary On
Versions: 1 2 3 4 5 6 7 8 9 10 11 12 13 14 15 16 17
000
FTPQ31 PGUM 042050 RRM
TAFGRO
TAF

TAF
PGWT 042050Z 0421/0518 12008KT P6SM VCSH FEW016 SCT040 BKN100
     FM050000 13012KT P6SM VCSH FEW018 SCT050 SCT100=

USA.gov is the U.S. government's official web portal to all federal, state and local government web resources and services.